sensor_id;sensor_type;location;lat;lon;timestamp;pressure;altitude;pressure_sealevel;temperature;humidity
71313;BME280;59104;44.738;20.612;2022-07-11T00:01:49;100364.66;;;17.11;44.81
71313;BME280;59104;44.738;20.612;2022-07-11T00:04:17;100374.41;;;17.12;45.04
71313;BME280;59104;44.738;20.612;2022-07-11T00:06:43;100391.28;;;17.14;44.68
71313;BME280;59104;44.738;20.612;2022-07-11T00:09:08;100391.91;;;17.16;44.81
71313;BME280;59104;44.738;20.612;2022-07-11T00:11:34;100387.94;;;17.12;45.06
71313;BME280;59104;44.738;20.612;2022-07-11T00:13:59;100394.78;;;17.08;44.63
71313;BME280;59104;44.738;20.612;2022-07-11T00:16:25;100390.81;;;17.04;44.61
71313;BME280;59104;44.738;20.612;2022-07-11T00:18:51;100383.72;;;17.03;44.80
71313;BME280;59104;44.738;20.612;2022-07-11T00:21:16;100388.91;;;16.98;45.40
71313;BME280;59104;44.738;20.612;2022-07-11T00:23:42;100366.34;;;16.78;45.39
71313;BME280;59104;44.738;20.612;2022-07-11T00:26:09;100418.59;;;16.92;45.19
71313;BME280;59104;44.738;20.612;2022-07-11T00:28:34;100405.03;;;16.85;45.34
71313;BME280;59104;44.738;20.612;2022-07-11T00:31:00;100388.56;;;16.80;45.46
71313;BME280;59104;44.738;20.612;2022-07-11T00:33:25;100404.78;;;16.80;45.64
71313;BME280;59104;44.738;20.612;2022-07-11T00:35:51;100386.03;;;16.72;45.85
71313;BME280;59104;44.738;20.612;2022-07-11T00:38:17;100391.41;;;16.65;45.80
71313;BME280;59104;44.738;20.612;2022-07-11T00:40:42;100382.22;;;16.60;45.98
71313;BME280;59104;44.738;20.612;2022-07-11T00:43:08;100394.44;;;16.56;46.13
71313;BME280;59104;44.738;20.612;2022-07-11T00:45:33;100371.72;;;16.50;46.25
71313;BME280;59104;44.738;20.612;2022-07-11T00:47:59;100383.34;;;16.51;46.80
71313;BME280;59104;44.738;20.612;2022-07-11T00:50:25;100376.03;;;16.45;46.84
71313;BME280;59104;44.738;20.612;2022-07-11T00:52:52;100380.34;;;16.39;46.86
71313;BME280;59104;44.738;20.612;2022-07-11T00:55:19;100354.66;;;16.22;46.88
71313;BME280;59104;44.738;20.612;2022-07-11T00:57:45;100380.06;;;16.27;47.14
71313;BME280;59104;44.738;20.612;2022-07-11T01:00:12;100375.69;;;16.26;47.36
71313;BME280;59104;44.738;20.612;2022-07-11T01:02:38;100373.09;;;16.18;47.63
71313;BME280;59104;44.738;20.612;2022-07-11T01:05:05;100380.38;;;16.18;47.76
71313;BME280;59104;44.738;20.612;2022-07-11T01:07:32;100369.53;;;16.11;48.06
71313;BME280;59104;44.738;20.612;2022-07-11T01:09:58;100373.63;;;16.07;48.29
71313;BME280;59104;44.738;20.612;2022-07-11T01:12:24;100378.19;;;16.07;48.25
71313;BME280;59104;44.738;20.612;2022-07-11T01:14:56;100366.50;;;16.00;48.50
71313;BME280;59104;44.738;20.612;2022-07-11T01:17:24;100372.03;;;15.92;48.88
71313;BME280;59104;44.738;20.612;2022-07-11T01:19:50;100375.56;;;15.92;48.98
71313;BME280;59104;44.738;20.612;2022-07-11T01:22:18;100364.72;;;15.86;49.13
71313;BME280;59104;44.738;20.612;2022-07-11T01:24:46;100364.06;;;15.83;49.30
71313;BME280;59104;44.738;20.612;2022-07-11T01:27:12;100373.63;;;15.86;49.52
71313;BME280;59104;44.738;20.612;2022-07-11T01:29:40;100359.44;;;15.77;49.64
71313;BME280;59104;44.738;20.612;2022-07-11T01:32:06;100370.03;;;15.79;49.97
71313;BME280;59104;44.738;20.612;2022-07-11T01:34:33;100363.53;;;15.73;50.10
71313;BME280;59104;44.738;20.612;2022-07-11T01:36:59;100369.13;;;15.72;50.27
71313;BME280;59104;44.738;20.612;2022-07-11T01:39:25;100373.31;;;15.74;50.39
71313;BME280;59104;44.738;20.612;2022-07-11T01:41:56;100365.59;;;15.71;50.82
71313;BME280;59104;44.738;20.612;2022-07-11T01:44:23;100363.91;;;15.70;50.86
71313;BME280;59104;44.738;20.612;2022-07-11T01:46:48;100366.44;;;15.72;51.20
71313;BME280;59104;44.738;20.612;2022-07-11T01:49:13;100374.53;;;15.72;51.15
71313;BME280;59104;44.738;20.612;2022-07-11T01:51:41;100361.81;;;15.66;51.35
71313;BME280;59104;44.738;20.612;2022-07-11T01:54:07;100384.94;;;15.75;51.46
71313;BME280;59104;44.738;20.612;2022-07-11T01:56:33;100379.53;;;15.75;51.52
71313;BME280;59104;44.738;20.612;2022-07-11T01:58:59;100382.88;;;15.77;51.68
71313;BME280;59104;44.738;20.612;2022-07-11T02:01:25;100381.41;;;15.74;51.76
71313;BME280;59104;44.738;20.612;2022-07-11T02:03:52;100368.69;;;15.68;52.08
71313;BME280;59104;44.738;20.612;2022-07-11T02:06:19;100388.19;;;15.70;52.04
71313;BME280;59104;44.738;20.612;2022-07-11T02:08:45;100385.50;;;15.70;51.95
71313;BME280;59104;44.738;20.612;2022-07-11T02:11:11;100390.81;;;15.64;52.01
71313;BME280;59104;44.738;20.612;2022-07-11T02:13:36;100393.97;;;15.67;51.66
71313;BME280;59104;44.738;20.612;2022-07-11T02:16:02;100401.88;;;15.69;52.01
71313;BME280;59104;44.738;20.612;2022-07-11T02:18:28;100397.50;;;15.68;51.84
71313;BME280;59104;44.738;20.612;2022-07-11T02:20:54;100400.19;;;15.68;52.16
71313;BME280;59104;44.738;20.612;2022-07-11T02:23:20;100397.50;;;15.68;52.07
71313;BME280;59104;44.738;20.612;2022-07-11T02:25:49;100402.91;;;15.68;51.97
71313;BME280;59104;44.738;20.612;2022-07-11T02:28:14;100396.19;;;15.64;52.08
71313;BME280;59104;44.738;20.612;2022-07-11T02:30:42;100387.88;;;15.59;51.99
71313;BME280;59104;44.738;20.612;2022-07-11T02:33:08;100409.13;;;15.68;52.33
71313;BME280;59104;44.738;20.612;2022-07-11T02:35:36;100409.97;;;15.69;52.33
71313;BME280;59104;44.738;20.612;2022-07-11T02:38:02;100396.88;;;15.66;52.26
71313;BME280;59104;44.738;20.612;2022-07-11T02:40:28;100421.78;;;15.68;52.04
71313;BME280;59104;44.738;20.612;2022-07-11T02:42:54;100414.53;;;15.68;52.47
71313;BME280;59104;44.738;20.612;2022-07-11T02:45:21;100415.06;;;15.64;52.52
71313;BME280;59104;44.738;20.612;2022-07-11T02:47:46;100429.59;;;15.63;52.45
71313;BME280;59104;44.738;20.612;2022-07-11T02:50:13;100423.63;;;15.67;52.73
71313;BME280;59104;44.738;20.612;2022-07-11T02:52:40;100421.06;;;15.59;52.72
71313;BME280;59104;44.738;20.612;2022-07-11T02:55:07;100435.47;;;15.66;52.75
71313;BME280;59104;44.738;20.612;2022-07-11T02:57:34;100422.53;;;15.62;52.75
71313;BME280;59104;44.738;20.612;2022-07-11T03:00:01;100434.34;;;15.61;52.85
71313;BME280;59104;44.738;20.612;2022-07-11T03:02:27;100431.00;;;15.59;52.55
71313;BME280;59104;44.738;20.612;2022-07-11T03:04:53;100424.31;;;15.55;53.09
71313;BME280;59104;44.738;20.612;2022-07-11T03:07:18;100426.75;;;15.50;53.11
71313;BME280;59104;44.738;20.612;2022-07-11T03:09:44;100426.75;;;15.50;53.34
71313;BME280;59104;44.738;20.612;2022-07-11T03:12:10;100433.16;;;15.49;53.48
71313;BME280;59104;44.738;20.612;2022-07-11T03:14:36;100428.31;;;15.44;53.56
71313;BME280;59104;44.738;20.612;2022-07-11T03:17:01;100435.56;;;15.44;53.79
71313;BME280;59104;44.738;20.612;2022-07-11T03:19:27;100428.13;;;15.31;54.07
71313;BME280;59104;44.738;20.612;2022-07-11T03:21:52;100423.03;;;15.21;54.17
71313;BME280;59104;44.738;20.612;2022-07-11T03:24:18;100422.28;;;15.13;54.67
71313;BME280;59104;44.738;20.612;2022-07-11T03:26:43;100440.28;;;15.12;55.19
71313;BME280;59104;44.738;20.612;2022-07-11T03:29:09;100441.03;;;15.06;55.21
71313;BME280;59104;44.738;20.612;2022-07-11T03:31:35;100448.94;;;15.08;55.28
71313;BME280;59104;44.738;20.612;2022-07-11T03:34:01;100450.69;;;15.01;55.70
71313;BME280;59104;44.738;20.612;2022-07-11T03:36:27;100465.00;;;15.01;55.67
71313;BME280;59104;44.738;20.612;2022-07-11T03:38:53;100462.22;;;14.95;56.00
71313;BME280;59104;44.738;20.612;2022-07-11T03:41:18;100456.72;;;14.88;56.23
71313;BME280;59104;44.738;20.612;2022-07-11T03:43:44;100470.66;;;14.92;56.48
71313;BME280;59104;44.738;20.612;2022-07-11T03:46:09;100468.50;;;14.87;56.88
71313;BME280;59104;44.738;20.612;2022-07-11T03:48:35;100465.81;;;14.87;56.74
71313;BME280;59104;44.738;20.612;2022-07-11T03:51:00;100460.16;;;14.82;56.77
71313;BME280;59104;44.738;20.612;2022-07-11T03:53:26;100463.84;;;14.81;56.80
71313;BME280;59104;44.738;20.612;2022-07-11T03:55:52;100451.50;;;14.72;57.41
71313;BME280;59104;44.738;20.612;2022-07-11T03:58:17;100453.66;;;14.76;57.12
71313;BME280;59104;44.738;20.612;2022-07-11T04:00:43;100465.91;;;14.79;57.21
71313;BME280;59104;44.738;20.612;2022-07-11T04:03:08;100455.03;;;14.72;57.51
71313;BME280;59104;44.738;20.612;2022-07-11T04:05:35;100472.31;;;14.78;57.69
71313;BME280;59104;44.738;20.612;2022-07-11T04:08:00;100480.75;;;14.75;57.54
71313;BME280;59104;44.738;20.612;2022-07-11T04:10:26;100471.72;;;14.68;57.64
71313;BME280;59104;44.738;20.612;2022-07-11T04:12:51;100477.91;;;14.76;58.09
71313;BME280;59104;44.738;20.612;2022-07-11T04:15:17;100488.31;;;14.80;58.33
71313;BME280;59104;44.738;20.612;2022-07-11T04:17:43;100495.34;;;14.81;57.78
71313;BME280;59104;44.738;20.612;2022-07-11T04:20:09;100481.22;;;14.78;58.27
71313;BME280;59104;44.738;20.612;2022-07-11T04:22:35;100482.44;;;14.76;58.35
71313;BME280;59104;44.738;20.612;2022-07-11T04:25:01;100475.72;;;14.72;58.41
71313;BME280;59104;44.738;20.612;2022-07-11T04:27:26;100486.66;;;14.70;58.56
71313;BME280;59104;44.738;20.612;2022-07-11T04:29:52;100473.03;;;14.72;59.04
71313;BME280;59104;44.738;20.612;2022-07-11T04:32:18;100481.97;;;14.72;58.32
71313;BME280;59104;44.738;20.612;2022-07-11T04:34:43;100488.94;;;14.82;58.70
71313;BME280;59104;44.738;20.612;2022-07-11T04:37:10;100506.59;;;14.84;58.27
71313;BME280;59104;44.738;20.612;2022-07-11T04:39:35;100497.22;;;14.80;59.07
71313;BME280;59104;44.738;20.612;2022-07-11T04:42:01;100497.38;;;14.78;59.01
71313;BME280;59104;44.738;20.612;2022-07-11T04:44:29;100501.19;;;14.84;58.76
71313;BME280;59104;44.738;20.612;2022-07-11T04:46:55;100502.03;;;14.85;58.82
71313;BME280;59104;44.738;20.612;2022-07-11T04:49:21;100507.06;;;14.88;59.05
71313;BME280;59104;44.738;20.612;2022-07-11T04:51:47;100509.09;;;14.86;59.17
71313;BME280;59104;44.738;20.612;2022-07-11T04:54:12;100512.09;;;14.91;59.23
71313;BME280;59104;44.738;20.612;2022-07-11T04:56:38;100506.53;;;14.92;59.33
71313;BME280;59104;44.738;20.612;2022-07-11T04:59:04;100512.94;;;14.91;59.43
71313;BME280;59104;44.738;20.612;2022-07-11T05:01:30;100515.44;;;14.93;59.27
71313;BME280;59104;44.738;20.612;2022-07-11T05:03:56;100510.06;;;14.93;58.46
71313;BME280;59104;44.738;20.612;2022-07-11T05:06:22;100510.22;;;14.91;58.78
71313;BME280;59104;44.738;20.612;2022-07-11T05:08:47;100530.69;;;15.00;58.67
71313;BME280;59104;44.738;20.612;2022-07-11T05:11:13;100527.34;;;14.98;58.84
71313;BME280;59104;44.738;20.612;2022-07-11T05:13:39;100533.19;;;15.02;58.57
71313;BME280;59104;44.738;20.612;2022-07-11T05:16:05;100531.91;;;15.12;58.44
71313;BME280;59104;44.738;20.612;2022-07-11T05:18:31;100537.97;;;15.14;58.99
71313;BME280;59104;44.738;20.612;2022-07-11T05:20:57;100545.88;;;15.30;58.71
71313;BME280;59104;44.738;20.612;2022-07-11T05:23:22;100531.38;;;15.31;58.83
71313;BME280;59104;44.738;20.612;2022-07-11T05:25:48;100541.16;;;15.47;57.88
71313;BME280;59104;44.738;20.612;2022-07-11T05:28:14;100544.63;;;15.56;58.40
71313;BME280;59104;44.738;20.612;2022-07-11T05:30:40;100537.66;;;15.61;57.66
71313;BME280;59104;44.738;20.612;2022-07-11T05:33:06;100548.53;;;15.68;58.17
71313;BME280;59104;44.738;20.612;2022-07-11T05:35:32;100563.13;;;15.73;57.53
71313;BME280;59104;44.738;20.612;2022-07-11T05:37:57;100539.88;;;15.72;57.09
71313;BME280;59104;44.738;20.612;2022-07-11T05:40:23;100542.38;;;15.74;57.73
71313;BME280;59104;44.738;20.612;2022-07-11T05:42:48;100540.72;;;15.73;57.63
71313;BME280;59104;44.738;20.612;2022-07-11T05:45:14;100548.69;;;15.81;57.62
71313;BME280;59104;44.738;20.612;2022-07-11T05:47:40;100549.63;;;15.88;57.54
71313;BME280;59104;44.738;20.612;2022-07-11T05:50:06;100552.22;;;15.96;57.39
71313;BME280;59104;44.738;20.612;2022-07-11T05:52:32;100555.38;;;16.00;57.56
71313;BME280;59104;44.738;20.612;2022-07-11T05:54:58;100556.84;;;16.02;56.74
71313;BME280;59104;44.738;20.612;2022-07-11T05:57:24;100555.75;;;16.11;57.52
71313;BME280;59104;44.738;20.612;2022-07-11T05:59:50;100544.38;;;16.16;57.62
71313;BME280;59104;44.738;20.612;2022-07-11T06:02:16;100542.50;;;16.16;57.16
71313;BME280;59104;44.738;20.612;2022-07-11T06:04:42;100540.06;;;16.21;56.91
71313;BME280;59104;44.738;20.612;2022-07-11T06:07:10;100548.06;;;16.29;57.01
71313;BME280;59104;44.738;20.612;2022-07-11T06:09:36;100550.44;;;16.39;56.49
71313;BME280;59104;44.738;20.612;2022-07-11T06:12:02;100552.13;;;16.40;56.64
71313;BME280;59104;44.738;20.612;2022-07-11T06:14:28;100564.47;;;16.49;56.24
71313;BME280;59104;44.738;20.612;2022-07-11T06:16:53;100567.81;;;16.51;56.44
71313;BME280;59104;44.738;20.612;2022-07-11T06:19:19;100563.75;;;16.55;56.72
71313;BME280;59104;44.738;20.612;2022-07-11T06:21:45;100563.59;;;16.63;57.03
71313;BME280;59104;44.738;20.612;2022-07-11T06:24:11;100572.44;;;16.72;56.78
71313;BME280;59104;44.738;20.612;2022-07-11T06:26:36;100575.59;;;16.75;55.80
71313;BME280;59104;44.738;20.612;2022-07-11T06:29:02;100571.28;;;16.81;56.19
71313;BME280;59104;44.738;20.612;2022-07-11T06:31:28;100567.09;;;16.78;55.96
71313;BME280;59104;44.738;20.612;2022-07-11T06:33:53;100571.91;;;16.83;55.89
71313;BME280;59104;44.738;20.612;2022-07-11T06:36:26;100588.25;;;16.96;54.74
71313;BME280;59104;44.738;20.612;2022-07-11T06:38:53;100583.09;;;17.01;54.66
71313;BME280;59104;44.738;20.612;2022-07-11T06:41:19;100554.91;;;16.89;54.52
71313;BME280;59104;44.738;20.612;2022-07-11T06:43:44;100568.09;;;16.99;54.23
71313;BME280;59104;44.738;20.612;2022-07-11T06:46:14;100580.00;;;17.04;54.45
71313;BME280;59104;44.738;20.612;2022-07-11T06:48:40;100589.88;;;17.18;54.58
71313;BME280;59104;44.738;20.612;2022-07-11T06:51:06;100582.66;;;17.25;55.22
71313;BME280;59104;44.738;20.612;2022-07-11T06:53:32;100586.44;;;17.31;55.57
71313;BME280;59104;44.738;20.612;2022-07-11T06:55:57;100582.59;;;17.40;54.01
71313;BME280;59104;44.738;20.612;2022-07-11T06:58:23;100577.59;;;17.44;53.15
71313;BME280;59104;44.738;20.612;2022-07-11T07:00:59;100592.94;;;17.58;53.92
71313;BME280;59104;44.738;20.612;2022-07-11T07:03:25;100595.06;;;17.62;52.96
71313;BME280;59104;44.738;20.612;2022-07-11T07:05:51;100567.97;;;17.56;52.01
71313;BME280;59104;44.738;20.612;2022-07-11T07:08:21;100600.69;;;17.67;51.85
71313;BME280;59104;44.738;20.612;2022-07-11T07:10:47;100595.31;;;17.74;52.21
71313;BME280;59104;44.738;20.612;2022-07-11T07:13:12;100604.28;;;17.74;51.84
71313;BME280;59104;44.738;20.612;2022-07-11T07:15:38;100595.50;;;17.72;50.79
71313;BME280;59104;44.738;20.612;2022-07-11T07:18:03;100580.47;;;17.63;50.47
71313;BME280;59104;44.738;20.612;2022-07-11T07:20:29;100590.78;;;17.81;51.04
71313;BME280;59104;44.738;20.612;2022-07-11T07:22:55;100594.13;;;17.83;50.06
71313;BME280;59104;44.738;20.612;2022-07-11T07:25:21;100589.38;;;17.85;50.96
71313;BME280;59104;44.738;20.612;2022-07-11T07:27:46;100578.53;;;17.85;50.95
71313;BME280;59104;44.738;20.612;2022-07-11T07:30:12;100596.50;;;17.99;50.34
71313;BME280;59104;44.738;20.612;2022-07-11T07:32:38;100588.63;;;18.04;50.30
71313;BME280;59104;44.738;20.612;2022-07-11T07:35:03;100590.09;;;18.07;50.60
71313;BME280;59104;44.738;20.612;2022-07-11T07:37:29;100588.44;;;18.12;50.77
71313;BME280;59104;44.738;20.612;2022-07-11T07:39:55;100590.59;;;18.23;50.14
71313;BME280;59104;44.738;20.612;2022-07-11T07:42:20;100589.78;;;18.29;50.32
71313;BME280;59104;44.738;20.612;2022-07-11T07:44:46;100596.88;;;18.37;48.49
71313;BME280;59104;44.738;20.612;2022-07-11T07:47:11;100583.13;;;18.38;48.55
71313;BME280;59104;44.738;20.612;2022-07-11T07:49:37;100590.25;;;18.46;48.56
71313;BME280;59104;44.738;20.612;2022-07-11T07:52:03;100602.31;;;18.43;48.62
71313;BME280;59104;44.738;20.612;2022-07-11T07:54:29;100589.81;;;18.42;49.25
71313;BME280;59104;44.738;20.612;2022-07-11T07:56:54;100585.50;;;18.55;48.72
71313;BME280;59104;44.738;20.612;2022-07-11T07:59:20;100583.00;;;18.60;48.60
71313;BME280;59104;44.738;20.612;2022-07-11T08:01:50;100594.69;;;18.67;48.73
71313;BME280;59104;44.738;20.612;2022-07-11T08:04:16;100581.16;;;18.67;46.88
71313;BME280;59104;44.738;20.612;2022-07-11T08:06:42;100588.03;;;18.76;47.14
71313;BME280;59104;44.738;20.612;2022-07-11T08:09:08;100573.25;;;18.72;47.95
71313;BME280;59104;44.738;20.612;2022-07-11T08:11:34;100593.47;;;18.82;48.15
71313;BME280;59104;44.738;20.612;2022-07-11T08:14:00;100591.81;;;18.81;46.59
71313;BME280;59104;44.738;20.612;2022-07-11T08:16:27;100585.75;;;18.86;47.71
71313;BME280;59104;44.738;20.612;2022-07-11T08:18:54;100563.22;;;18.79;47.25
71313;BME280;59104;44.738;20.612;2022-07-11T08:21:21;100586.41;;;19.01;48.29
71313;BME280;59104;44.738;20.612;2022-07-11T08:23:47;100581.22;;;19.06;48.17
71313;BME280;59104;44.738;20.612;2022-07-11T08:26:13;100598.94;;;19.09;46.82
71313;BME280;59104;44.738;20.612;2022-07-11T08:28:39;100592.66;;;18.95;46.23
71313;BME280;59104;44.738;20.612;2022-07-11T08:31:04;100598.72;;;18.90;47.02
71313;BME280;59104;44.738;20.612;2022-07-11T08:33:30;100587.03;;;18.83;47.07
71313;BME280;59104;44.738;20.612;2022-07-11T08:35:56;100588.69;;;19.04;47.91
71313;BME280;59104;44.738;20.612;2022-07-11T08:38:22;100592.06;;;19.19;46.72
71313;BME280;59104;44.738;20.612;2022-07-11T08:40:51;100577.66;;;19.32;47.07
71313;BME280;59104;44.738;20.612;2022-07-11T08:43:20;100586.84;;;19.44;44.08
71313;BME280;59104;44.738;20.612;2022-07-11T08:45:47;100578.06;;;19.29;44.62
71313;BME280;59104;44.738;20.612;2022-07-11T08:48:14;100586.81;;;19.37;43.98
71313;BME280;59104;44.738;20.612;2022-07-11T08:50:40;100587.66;;;19.38;43.36
71313;BME280;59104;44.738;20.612;2022-07-11T08:53:06;100593.31;;;19.43;41.10
71313;BME280;59104;44.738;20.612;2022-07-11T08:55:32;100593.53;;;19.55;42.69
71313;BME280;59104;44.738;20.612;2022-07-11T08:57:58;100592.03;;;19.65;43.16
71313;BME280;59104;44.738;20.612;2022-07-11T09:00:24;100606.84;;;19.76;44.38
71313;BME280;59104;44.738;20.612;2022-07-11T09:02:51;100573.44;;;19.69;44.12
71313;BME280;59104;44.738;20.612;2022-07-11T09:05:19;100581.97;;;19.79;42.61
71313;BME280;59104;44.738;20.612;2022-07-11T09:07:47;100581.78;;;19.80;42.28
71313;BME280;59104;44.738;20.612;2022-07-11T09:10:14;100582.38;;;19.95;43.38
71313;BME280;59104;44.738;20.612;2022-07-11T09:16:00;100582.47;;;20.20;42.28
71313;BME280;59104;44.738;20.612;2022-07-11T09:18:41;100575.75;;;20.36;45.12
71313;BME280;59104;44.738;20.612;2022-07-11T09:21:11;100582.22;;;20.41;43.69
71313;BME280;59104;44.738;20.612;2022-07-11T09:23:58;100577.38;;;20.43;42.98
71313;BME280;59104;44.738;20.612;2022-07-11T09:26:44;100578.19;;;20.50;42.43
71313;BME280;59104;44.738;20.612;2022-07-11T09:29:12;100558.22;;;20.32;42.48
71313;BME280;59104;44.738;20.612;2022-07-11T09:31:40;100574.03;;;20.48;43.21
71313;BME280;59104;44.738;20.612;2022-07-11T09:34:07;100580.63;;;20.59;42.22
71313;BME280;59104;44.738;20.612;2022-07-11T09:36:45;100583.47;;;20.77;42.45
71313;BME280;59104;44.738;20.612;2022-07-11T09:39:16;100578.38;;;20.87;41.34
71313;BME280;59104;44.738;20.612;2022-07-11T09:41:43;100572.28;;;20.91;41.63
71313;BME280;59104;44.738;20.612;2022-07-11T09:44:15;100591.84;;;21.00;41.34
71313;BME280;59104;44.738;20.612;2022-07-11T09:46:47;100583.25;;;21.03;39.60
71313;BME280;59104;44.738;20.612;2022-07-11T09:49:14;100577.81;;;21.10;39.98
71313;BME280;59104;44.738;20.612;2022-07-11T09:51:40;100579.81;;;21.21;40.42
71313;BME280;59104;44.738;20.612;2022-07-11T09:54:08;100573.28;;;21.28;39.60
71313;BME280;59104;44.738;20.612;2022-07-11T09:56:38;100568.88;;;21.27;39.73
71313;BME280;59104;44.738;20.612;2022-07-11T09:59:09;100563.50;;;21.21;40.51
71313;BME280;59104;44.738;20.612;2022-07-11T10:01:36;100556.94;;;20.97;40.17
71313;BME280;59104;44.738;20.612;2022-07-11T10:04:04;100581.25;;;20.92;42.05
71313;BME280;59104;44.738;20.612;2022-07-11T10:06:31;100575.31;;;20.77;40.68
71313;BME280;59104;44.738;20.612;2022-07-11T10:08:56;100572.09;;;20.86;39.84
71313;BME280;59104;44.738;20.612;2022-07-11T10:11:22;100566.34;;;21.01;40.63
71313;BME280;59104;44.738;20.612;2022-07-11T10:13:49;100553.09;;;21.11;40.55
71313;BME280;59104;44.738;20.612;2022-07-11T10:16:55;100573.38;;;21.15;38.79
71313;BME280;59104;44.738;20.612;2022-07-11T10:19:30;100582.69;;;21.26;38.11
71313;BME280;59104;44.738;20.612;2022-07-11T10:24:38;100571.75;;;21.75;37.87
71313;BME280;59104;44.738;20.612;2022-07-11T10:29:44;100578.91;;;21.51;39.20
71313;BME280;59104;44.738;20.612;2022-07-11T10:32:12;100580.09;;;21.13;38.81
71313;BME280;59104;44.738;20.612;2022-07-11T10:34:37;100570.06;;;21.07;38.80
71313;BME280;59104;44.738;20.612;2022-07-11T10:37:06;100572.75;;;21.13;37.86
71313;BME280;59104;44.738;20.612;2022-07-11T10:39:33;100576.16;;;21.33;38.12
71313;BME280;59104;44.738;20.612;2022-07-11T10:42:03;100552.97;;;21.49;37.65
71313;BME280;59104;44.738;20.612;2022-07-11T10:44:47;100568.19;;;21.57;37.97
71313;BME280;59104;44.738;20.612;2022-07-11T10:47:33;100564.53;;;21.44;38.63
71313;BME280;59104;44.738;20.612;2022-07-11T10:50:19;100573.72;;;21.25;39.54
71313;BME280;59104;44.738;20.612;2022-07-11T10:52:49;100569.44;;;21.04;38.93
71313;BME280;59104;44.738;20.612;2022-07-11T10:58:06;100573.59;;;21.14;38.48
71313;BME280;59104;44.738;20.612;2022-07-11T11:00:34;100570.22;;;21.18;38.71
71313;BME280;59104;44.738;20.612;2022-07-11T11:03:11;100565.16;;;21.22;38.90
71313;BME280;59104;44.738;20.612;2022-07-11T11:10:57;100566.63;;;21.42;38.93
71313;BME280;59104;44.738;20.612;2022-07-11T11:13:24;100558.59;;;21.54;38.28
71313;BME280;59104;44.738;20.612;2022-07-11T11:15:57;100552.63;;;21.82;38.29
71313;BME280;59104;44.738;20.612;2022-07-11T11:23:39;100552.88;;;21.98;37.17
71313;BME280;59104;44.738;20.612;2022-07-11T11:28:54;100566.97;;;22.43;37.93
71313;BME280;59104;44.738;20.612;2022-07-11T11:31:20;100554.31;;;22.49;36.95
71313;BME280;59104;44.738;20.612;2022-07-11T11:33:46;100536.88;;;22.50;37.12
71313;BME280;59104;44.738;20.612;2022-07-11T11:36:17;100548.97;;;22.54;36.57
71313;BME280;59104;44.738;20.612;2022-07-11T11:38:43;100565.34;;;22.24;36.36
71313;BME280;59104;44.738;20.612;2022-07-11T11:41:10;100561.81;;;22.05;37.05
71313;BME280;59104;44.738;20.612;2022-07-11T11:43:36;100565.34;;;22.24;37.13
71313;BME280;59104;44.738;20.612;2022-07-11T11:46:03;100554.06;;;22.21;35.92
71313;BME280;59104;44.738;20.612;2022-07-11T11:51:06;100553.59;;;22.24;35.34
71313;BME280;59104;44.738;20.612;2022-07-11T11:53:39;100559.25;;;22.40;34.90
71313;BME280;59104;44.738;20.612;2022-07-11T11:58:43;100530.03;;;22.29;35.30
71313;BME280;59104;44.738;20.612;2022-07-11T12:01:12;100540.88;;;22.66;37.32
71313;BME280;59104;44.738;20.612;2022-07-11T12:03:57;100536.66;;;22.93;35.10
71313;BME280;59104;44.738;20.612;2022-07-11T12:06:29;100554.38;;;23.02;34.50
71313;BME280;59104;44.738;20.612;2022-07-11T12:09:06;100540.00;;;22.95;33.89
71313;BME280;59104;44.738;20.612;2022-07-11T12:11:33;100566.19;;;22.84;35.35
71313;BME280;59104;44.738;20.612;2022-07-11T12:14:02;100545.94;;;22.62;35.19
71313;BME280;59104;44.738;20.612;2022-07-11T12:16:28;100532.81;;;22.41;35.12
71313;BME280;59104;44.738;20.612;2022-07-11T12:19:21;100546.22;;;22.42;35.67
71313;BME280;59104;44.738;20.612;2022-07-11T12:21:52;100552.25;;;22.44;36.43
71313;BME280;59104;44.738;20.612;2022-07-11T12:24:24;100547.78;;;22.50;36.59
71313;BME280;59104;44.738;20.612;2022-07-11T12:26:53;100531.94;;;22.58;35.89
71313;BME280;59104;44.738;20.612;2022-07-11T12:29:20;100532.16;;;22.87;34.76
71313;BME280;59104;44.738;20.612;2022-07-11T12:39:29;100547.81;;;22.62;34.59
71313;BME280;59104;44.738;20.612;2022-07-11T12:41:56;100518.81;;;22.37;34.88
71313;BME280;59104;44.738;20.612;2022-07-11T12:47:07;100526.28;;;22.42;36.19
71313;BME280;59104;44.738;20.612;2022-07-11T12:49:34;100545.56;;;22.29;36.53
71313;BME280;59104;44.738;20.612;2022-07-11T12:52:00;100531.63;;;22.19;35.99
71313;BME280;59104;44.738;20.612;2022-07-11T12:54:30;100534.81;;;22.34;35.35
71313;BME280;59104;44.738;20.612;2022-07-11T12:57:00;100535.81;;;22.51;33.07
71313;BME280;59104;44.738;20.612;2022-07-11T12:59:28;100533.28;;;22.68;33.61
71313;BME280;59104;44.738;20.612;2022-07-11T13:02:04;100536.56;;;22.99;32.43
71313;BME280;59104;44.738;20.612;2022-07-11T13:06:56;100521.19;;;23.51;31.45
71313;BME280;59104;44.738;20.612;2022-07-11T13:09:40;100509.50;;;25.81;28.34
71313;BME280;59104;44.738;20.612;2022-07-11T13:12:06;100499.72;;;26.60;27.75
71313;BME280;59104;44.738;20.612;2022-07-11T13:14:32;100507.84;;;25.25;28.94
71313;BME280;59104;44.738;20.612;2022-07-11T13:17:17;100498.88;;;24.34;30.08
71313;BME280;59104;44.738;20.612;2022-07-11T13:19:43;100494.47;;;25.28;29.60
71313;BME280;59104;44.738;20.612;2022-07-11T13:22:09;100502.78;;;25.33;30.28
71313;BME280;59104;44.738;20.612;2022-07-11T13:24:34;100498.63;;;25.69;29.83